createdAt,value
2018-01-12T00:01:51.740Z,58.47
2018-01-12T00:04:18.059Z,58.34
2018-01-12T00:06:44.344Z,58.57
2018-01-12T00:09:10.636Z,58.54
2018-01-12T00:11:36.962Z,58.80
2018-01-12T00:14:03.247Z,58.29
2018-01-12T00:16:29.533Z,58.19
2018-01-12T00:18:56.004Z,58.16
2018-01-12T00:21:23.033Z,58.40
2018-01-12T00:23:49.316Z,58.38
2018-01-12T00:26:15.620Z,58.12
2018-01-12T00:28:42.637Z,57.98
2018-01-12T00:31:08.987Z,57.98
2018-01-12T00:33:35.270Z,57.92
2018-01-12T00:36:01.548Z,58.01
2018-01-12T00:41:28.068Z,58.21
2018-01-12T00:43:54.359Z,58.30
2018-01-12T00:46:21.402Z,58.30
2018-01-12T00:48:47.780Z,58.16
2018-01-12T00:51:14.059Z,57.94
2018-01-12T00:53:40.371Z,57.83
2018-01-12T00:56:06.710Z,58.35
2018-01-12T00:58:33.022Z,58.13
2018-01-12T01:00:59.345Z,58.04
2018-01-12T01:03:26.418Z,57.90
2018-01-12T01:05:52.692Z,58.15
2018-01-12T01:08:18.981Z,58.30
2018-01-12T01:10:45.287Z,58.09
2018-01-12T01:13:12.324Z,58.06
2018-01-12T01:15:38.615Z,58.25
2018-01-12T01:18:04.890Z,58.31
2018-01-12T01:20:31.914Z,58.49
2018-01-12T01:22:58.294Z,58.35
2018-01-12T01:25:25.324Z,58.35
2018-01-12T01:27:51.608Z,58.26
2018-01-12T01:30:17.923Z,58.34
2018-01-12T01:32:44.962Z,58.33
2018-01-12T01:35:11.295Z,58.38
2018-01-12T01:37:37.639Z,58.29
2018-01-12T01:40:03.969Z,58.46
2018-01-12T01:42:30.248Z,58.17
2018-01-12T01:44:56.567Z,58.17
2018-01-12T01:47:22.880Z,57.76
2018-01-12T01:49:49.230Z,57.88
2018-01-12T01:52:15.543Z,57.64
2018-01-12T01:54:41.829Z,58.31
2018-01-12T01:57:08.861Z,58.43
2018-01-12T01:59:35.184Z,58.39
2018-01-12T02:02:01.475Z,58.60
2018-01-12T02:04:27.753Z,58.71
2018-01-12T02:06:54.056Z,58.83
2018-01-12T02:09:20.336Z,59.11
2018-01-12T02:11:46.627Z,58.89
2018-01-12T02:14:12.940Z,59.31
2018-01-12T02:16:39.984Z,59.48
2018-01-12T02:19:07.020Z,59.41
2018-01-12T02:21:33.355Z,59.44
2018-01-12T02:23:59.648Z,59.41
2018-01-12T02:26:25.944Z,59.26
2018-01-12T02:28:53.023Z,59.52
2018-01-12T02:31:20.021Z,59.64
2018-01-12T02:33:46.306Z,59.51
2018-01-12T02:36:12.638Z,59.53
2018-01-12T02:38:38.937Z,59.60
2018-01-12T02:41:05.224Z,59.72
2018-01-12T02:43:31.530Z,59.49
2018-01-12T02:45:58.574Z,59.58
2018-01-12T02:48:25.601Z,59.62
2018-01-12T02:50:51.929Z,59.47
2018-01-12T02:53:18.228Z,59.57
2018-01-12T02:55:44.514Z,59.91
2018-01-12T02:58:10.819Z,59.71
2018-01-12T03:00:37.086Z,59.60
2018-01-12T03:03:03.394Z,59.64
2018-01-12T03:05:29.713Z,59.81
2018-01-12T03:07:55.982Z,59.71
2018-01-12T03:10:22.264Z,59.67
2018-01-12T03:12:49.435Z,59.69
2018-01-12T03:15:15.720Z,59.72
2018-01-12T03:17:42.009Z,59.89
2018-01-12T03:20:08.312Z,60.08
2018-01-12T03:22:35.327Z,60.03
2018-01-12T03:25:01.617Z,59.93
2018-01-12T03:27:27.916Z,60.05
2018-01-12T03:29:54.213Z,59.84
2018-01-12T03:32:20.501Z,59.89
2018-01-12T03:34:47.561Z,59.81
2018-01-12T03:37:14.584Z,59.93
2018-01-12T03:39:40.885Z,59.82
2018-01-12T03:42:07.243Z,59.85
2018-01-12T03:44:33.524Z,59.83
2018-01-12T03:47:00.554Z,59.90
2018-01-12T03:49:26.857Z,59.86
2018-01-12T03:51:53.143Z,59.78
2018-01-12T03:54:20.177Z,59.74
2018-01-12T03:56:46.476Z,59.98
2018-01-12T03:59:12.772Z,59.82
2018-01-12T04:01:39.793Z,59.77
2018-01-12T04:04:06.134Z,59.86
2018-01-12T04:06:32.428Z,60.04
2018-01-12T04:08:58.736Z,59.86
2018-01-12T04:11:26.014Z,59.94
2018-01-12T04:13:52.996Z,59.99
2018-01-12T04:16:19.279Z,59.89
2018-01-12T04:18:46.327Z,59.93
2018-01-12T04:21:13.349Z,59.82
2018-01-12T04:23:39.624Z,59.93
2018-01-12T04:26:05.952Z,59.86
2018-01-12T04:28:32.989Z,59.87
2018-01-12T04:30:59.276Z,59.84
2018-01-12T04:33:25.601Z,60.07
2018-01-12T04:35:51.902Z,59.93
2018-01-12T04:38:18.924Z,59.97
2018-01-12T04:40:45.217Z,59.91
2018-01-12T04:43:11.499Z,59.95
2018-01-12T04:45:37.793Z,60.08
2018-01-12T04:48:04.105Z,59.88
2018-01-12T04:50:30.388Z,59.85
2018-01-12T04:52:56.664Z,59.97
2018-01-12T04:55:23.719Z,60.08
2018-01-12T04:57:50.761Z,59.85
2018-01-12T05:00:17.040Z,59.87
2018-01-12T05:02:43.361Z,59.94
2018-01-12T05:05:09.649Z,59.91
2018-01-12T05:07:35.956Z,59.92
2018-01-12T05:10:02.260Z,59.84
2018-01-12T05:12:29.306Z,59.86
2018-01-12T05:14:56.348Z,59.84
2018-01-12T05:17:23.394Z,60.12
2018-01-12T05:19:49.672Z,59.77
2018-01-12T05:22:15.953Z,59.12
2018-01-12T05:24:42.817Z,58.78
2018-01-12T05:27:09.840Z,58.47
2018-01-12T05:29:36.117Z,58.10
2018-01-12T05:32:03.152Z,57.83
2018-01-12T05:34:29.437Z,57.58
2018-01-12T05:36:55.736Z,57.45
2018-01-12T05:39:22.776Z,57.26
2018-01-12T05:41:49.065Z,57.18
2018-01-12T05:44:15.347Z,57.11
2018-01-12T05:46:42.108Z,57.06
2018-01-12T05:49:09.128Z,56.99
2018-01-12T05:51:35.435Z,56.96
2018-01-12T05:54:01.741Z,56.98
2018-01-12T05:56:28.024Z,57.07
2018-01-12T05:58:54.303Z,57.07
2018-01-12T06:01:39.832Z,57.01
2018-01-12T06:04:24.764Z,56.99
2018-01-12T06:06:51.081Z,57.10
2018-01-12T06:09:17.360Z,57.04
2018-01-12T06:11:43.640Z,57.08
2018-01-12T06:14:10.716Z,57.14
2018-01-12T06:16:36.997Z,57.30
2018-01-12T06:19:03.293Z,57.56
2018-01-12T06:21:29.614Z,57.77
2018-01-12T06:23:55.903Z,57.97
2018-01-12T06:26:22.221Z,58.46
2018-01-12T06:28:48.533Z,58.91
2018-01-12T06:31:14.824Z,59.00
2018-01-12T06:33:41.116Z,59.33
2018-01-12T06:36:07.432Z,59.64
2018-01-12T06:38:33.735Z,59.44
2018-01-12T06:41:00.801Z,59.60
2018-01-12T06:43:27.855Z,59.60
2018-01-12T06:45:54.876Z,59.68
2018-01-12T06:51:21.968Z,59.96
2018-01-12T06:53:49.007Z,60.12
2018-01-12T06:56:16.039Z,60.04
2018-01-12T06:58:42.421Z,60.21
2018-01-12T07:01:08.732Z,60.22
2018-01-12T07:03:35.024Z,60.17
2018-01-12T07:06:01.333Z,60.03
2018-01-12T07:08:27.621Z,59.62
2018-01-12T07:10:53.931Z,59.29
2018-01-12T07:13:20.264Z,58.54
2018-01-12T07:15:46.552Z,58.43
2018-01-12T07:18:13.584Z,58.31
2018-01-12T07:20:58.420Z,58.11
2018-01-12T07:23:45.567Z,57.91
2018-01-12T07:26:12.592Z,57.77
2018-01-12T07:28:38.884Z,57.49
2018-01-12T07:31:05.185Z,57.30
2018-01-12T07:33:31.483Z,57.22
2018-01-12T07:35:57.756Z,57.46
2018-01-12T07:38:24.104Z,57.62
2018-01-12T07:40:51.145Z,57.86
2018-01-12T07:43:17.424Z,58.09
2018-01-12T07:45:43.704Z,58.29
2018-01-12T07:48:11.029Z,58.50
2018-01-12T07:50:37.385Z,58.60
2018-01-12T07:53:09.869Z,58.54
2018-01-12T07:55:36.171Z,58.53
2018-01-12T07:58:02.448Z,58.64
2018-01-12T08:00:34.789Z,58.70
2018-01-12T08:03:03.016Z,58.78
2018-01-12T08:05:30.091Z,58.93
2018-01-12T08:07:56.385Z,58.80
2018-01-12T08:10:22.673Z,57.71
2018-01-12T08:12:48.966Z,57.54
2018-01-12T08:15:16.028Z,57.47
2018-01-12T08:17:43.046Z,57.86
2018-01-12T08:20:09.336Z,58.20
2018-01-12T08:22:35.690Z,58.15
2018-01-12T08:25:01.987Z,58.43
2018-01-12T08:27:29.039Z,58.54
2018-01-12T08:29:56.060Z,59.00
2018-01-12T08:32:22.343Z,58.45
2018-01-12T08:34:48.627Z,58.39
2018-01-12T08:37:14.902Z,57.97
2018-01-12T08:39:41.982Z,57.58
2018-01-12T08:42:08.251Z,57.13
2018-01-12T08:44:34.541Z,57.01
2018-01-12T08:47:01.264Z,57.15
2018-01-12T08:49:28.292Z,57.42
2018-01-12T08:51:54.612Z,57.69
2018-01-12T08:54:20.912Z,58.13
2018-01-12T08:56:47.206Z,58.49
2018-01-12T08:59:13.515Z,58.42
2018-01-12T09:01:39.801Z,58.57
2018-01-12T09:04:06.256Z,58.58
2018-01-12T09:06:32.552Z,58.44
2018-01-12T09:08:58.828Z,58.21
2018-01-12T09:11:25.135Z,58.21
2018-01-12T09:13:55.015Z,58.40
2018-01-12T09:16:26.211Z,58.38
2018-01-12T09:25:39.304Z,58.61
2018-01-12T09:28:05.751Z,58.69
2018-01-12T09:30:32.038Z,58.65
2018-01-12T09:32:58.548Z,58.43
2018-01-12T09:35:25.624Z,58.48
2018-01-12T09:38:10.594Z,58.76
2018-01-12T09:40:47.048Z,58.50
2018-01-12T09:43:13.375Z,58.93
2018-01-12T09:45:39.764Z,58.26
2018-01-12T09:48:25.516Z,58.16
2018-01-12T09:50:51.836Z,58.75
2018-01-12T09:53:18.126Z,59.03
2018-01-12T09:55:44.445Z,59.17
2018-01-12T09:58:10.757Z,59.36
2018-01-12T10:14:10.564Z,56.30
2018-01-12T10:16:36.906Z,56.13
2018-01-12T10:19:03.475Z,56.09
2018-01-12T10:21:40.102Z,56.25
2018-01-12T10:24:06.384Z,56.25
2018-01-12T10:26:33.411Z,56.08
2018-01-12T10:29:08.668Z,56.43
2018-01-12T10:31:49.455Z,56.59
2018-01-12T10:34:43.710Z,56.51
2018-01-12T10:37:10.726Z,56.82
2018-01-12T10:39:55.464Z,56.99
2018-01-12T10:42:21.816Z,57.47
2018-01-12T10:44:48.135Z,56.38
2018-01-12T10:47:30.307Z,56.46
2018-01-12T10:50:17.415Z,56.71
2018-01-12T10:52:46.560Z,57.26
2018-01-12T10:55:12.869Z,57.43
2018-01-12T10:57:39.228Z,57.47
2018-01-12T11:00:05.527Z,57.72
2018-01-12T11:02:32.629Z,58.27
2018-01-12T11:04:58.979Z,57.97
2018-01-12T11:07:25.339Z,57.58
2018-01-12T11:09:51.625Z,57.70
2018-01-12T11:12:17.946Z,57.09
2018-01-12T11:14:44.296Z,56.80
2018-01-12T11:17:10.654Z,56.40
2018-01-12T11:19:36.947Z,56.17
2018-01-12T11:22:03.273Z,56.02
2018-01-12T11:24:30.300Z,56.08
2018-01-12T11:26:56.624Z,56.12
2018-01-12T11:29:22.981Z,55.79
2018-01-12T11:31:49.316Z,55.84
2018-01-12T11:34:16.416Z,55.69
2018-01-12T11:36:42.697Z,55.73
2018-01-12T11:39:08.997Z,55.62
2018-01-12T11:41:35.308Z,55.49
2018-01-12T11:44:01.660Z,55.56
2018-01-12T11:46:28.049Z,55.72
2018-01-12T11:48:55.140Z,56.45
2018-01-12T11:51:21.466Z,56.42
2018-01-12T11:53:47.747Z,56.63
2018-01-12T11:56:14.067Z,56.78
2018-01-12T11:58:40.398Z,56.79
2018-01-12T12:01:06.769Z,56.97
2018-01-12T12:03:33.096Z,56.92
2018-01-12T12:05:59.433Z,56.97
2018-01-12T12:08:25.728Z,57.06
2018-01-12T12:10:52.015Z,57.08
2018-01-12T12:13:19.247Z,57.14
2018-01-12T12:15:45.584Z,57.21
2018-01-12T12:18:11.912Z,56.81
2018-01-12T12:20:38.231Z,56.88
2018-01-12T12:23:04.538Z,56.89
2018-01-12T12:25:31.587Z,56.96
2018-01-12T12:27:58.614Z,56.90
2018-01-12T12:30:24.952Z,57.03
2018-01-12T12:32:51.224Z,57.07
2018-01-12T12:35:17.520Z,57.29
2018-01-12T12:37:43.813Z,57.23
2018-01-12T12:40:10.115Z,57.17
2018-01-12T12:42:37.329Z,57.21
2018-01-12T12:45:03.616Z,57.20
2018-01-12T12:47:30.639Z,57.25
2018-01-12T12:49:56.940Z,57.45
2018-01-12T12:52:23.244Z,57.72
2018-01-12T12:54:49.546Z,57.92
2018-01-12T12:57:15.860Z,58.06
2018-01-12T12:59:42.146Z,58.12
2018-01-12T13:02:09.176Z,58.12
2018-01-12T13:04:35.445Z,58.18
2018-01-12T13:07:01.923Z,58.17
2018-01-12T13:34:15.090Z,57.94
2018-01-12T13:36:41.485Z,57.77
2018-01-12T13:39:07.825Z,57.64
2018-01-12T13:41:34.210Z,57.69
2018-01-12T13:44:00.556Z,57.36
2018-01-12T13:46:26.894Z,57.31
2018-01-12T13:48:53.997Z,57.20
2018-01-12T13:51:20.345Z,57.32
2018-01-12T13:53:46.676Z,57.53
2018-01-12T13:56:13.031Z,57.54
2018-01-12T13:58:39.376Z,57.56
2018-01-12T14:01:05.744Z,57.33
2018-01-12T14:03:32.853Z,57.16
2018-01-12T14:05:59.175Z,56.82
2018-01-12T14:08:25.496Z,56.88
2018-01-12T14:10:51.870Z,56.88
2018-01-12T14:13:18.222Z,56.89
2018-01-12T14:15:44.553Z,57.19
2018-01-12T14:18:12.836Z,56.97
2018-01-12T14:20:39.158Z,56.99
2018-01-12T14:23:05.498Z,57.06
2018-01-12T14:25:31.891Z,57.33
2018-01-12T14:27:58.208Z,57.24
2018-01-12T14:30:24.550Z,57.26
2018-01-12T14:32:51.665Z,57.19
2018-01-12T14:35:18.017Z,56.98
2018-01-12T14:37:44.392Z,57.12
2018-01-12T14:40:10.771Z,57.06
2018-01-12T14:42:37.093Z,56.99
2018-01-12T14:45:03.449Z,56.71
2018-01-12T14:47:29.842Z,56.75
2018-01-12T14:49:56.190Z,56.61
2018-01-12T14:52:22.508Z,56.53
2018-01-12T14:54:48.881Z,56.47
2018-01-12T14:57:15.220Z,56.51
2018-01-12T14:59:41.594Z,56.47
2018-01-12T15:02:07.944Z,56.34
2018-01-12T15:04:35.008Z,56.39
2018-01-12T15:07:01.729Z,56.21
2018-01-12T15:09:28.076Z,56.26
2018-01-12T15:11:55.156Z,56.40
2018-01-12T15:14:21.508Z,56.47
2018-01-12T15:16:47.859Z,56.39
2018-01-12T15:19:14.239Z,56.41
2018-01-12T15:21:40.605Z,56.66
2018-01-12T15:24:06.976Z,56.84
2018-01-12T15:26:33.335Z,55.97
2018-01-12T15:29:00.439Z,56.31
2018-01-12T15:31:26.974Z,55.93
2018-01-12T15:33:53.340Z,56.28
2018-01-12T15:36:19.950Z,56.31
2018-01-12T15:38:46.349Z,56.53
2018-01-12T15:41:12.702Z,56.59
2018-01-12T15:43:39.037Z,56.80
2018-01-12T15:46:05.434Z,57.14
2018-01-12T15:48:31.833Z,57.33
2018-01-12T15:50:58.180Z,56.63
2018-01-12T15:53:24.560Z,56.27
2018-01-12T15:55:50.912Z,56.28
2018-01-12T15:58:17.237Z,56.20
2018-01-12T16:00:43.624Z,56.23
2018-01-12T16:03:09.966Z,56.34
2018-01-12T16:05:36.333Z,56.51
2018-01-12T16:08:02.678Z,56.31
2018-01-12T16:10:29.028Z,56.41
2018-01-12T16:12:55.402Z,56.45
2018-01-12T16:15:21.774Z,56.56
2018-01-12T16:17:48.176Z,56.54
2018-01-12T16:20:14.533Z,56.46
2018-01-12T16:22:41.673Z,56.33
2018-01-12T16:25:08.066Z,56.23
2018-01-12T16:27:34.437Z,56.46
2018-01-12T16:30:00.830Z,56.50
2018-01-12T16:32:27.168Z,56.49
2018-01-12T16:34:53.518Z,56.43
2018-01-12T16:37:19.880Z,56.66
2018-01-12T16:39:46.247Z,56.67
2018-01-12T16:42:13.334Z,56.67
2018-01-12T16:44:39.744Z,56.67
2018-01-12T16:47:06.871Z,56.47
2018-01-12T16:49:33.274Z,56.46
2018-01-12T16:51:59.650Z,56.38
2018-01-12T16:54:26.005Z,56.49
2018-01-12T16:56:52.364Z,56.51
2018-01-12T16:59:18.738Z,56.51
2018-01-12T17:01:45.081Z,56.53
2018-01-12T17:04:11.403Z,56.67
2018-01-12T17:06:37.839Z,56.65
2018-01-12T17:09:04.217Z,56.75
2018-01-12T17:11:30.559Z,56.62
2018-01-12T17:13:56.961Z,56.65
2018-01-12T17:16:23.305Z,56.66
2018-01-12T17:18:49.686Z,56.53
2018-01-12T17:21:16.076Z,56.50
2018-01-12T17:23:42.431Z,56.63
2018-01-12T17:26:08.756Z,56.72
2018-01-12T17:28:35.188Z,55.96
2018-01-12T17:31:01.562Z,56.15
2018-01-12T17:33:27.941Z,56.51
2018-01-12T17:35:54.320Z,56.77
2018-01-12T17:38:20.658Z,55.92
2018-01-12T17:40:47.001Z,56.64
2018-01-12T17:43:13.367Z,56.58
2018-01-12T17:45:39.756Z,56.60
2018-01-12T17:48:06.159Z,56.70
2018-01-12T17:50:32.543Z,56.63
2018-01-12T17:52:59.113Z,56.38
2018-01-12T17:55:26.379Z,56.31
2018-01-12T17:57:52.802Z,56.39
2018-01-12T18:00:19.197Z,56.26
2018-01-12T18:02:45.531Z,56.38
2018-01-12T18:05:12.097Z,56.63
2018-01-12T18:07:38.494Z,56.66
2018-01-12T18:10:04.847Z,56.51
2018-01-12T18:12:31.215Z,56.50
2018-01-12T18:14:57.591Z,56.51
2018-01-12T18:17:23.957Z,56.50
2018-01-12T18:19:50.308Z,56.15
2018-01-12T18:22:16.750Z,56.28
2018-01-12T18:24:43.157Z,56.16
2018-01-12T18:27:09.500Z,56.24
2018-01-12T18:29:35.932Z,56.07
2018-01-12T18:32:02.273Z,56.51
2018-01-12T18:34:28.625Z,56.81
2018-01-12T18:36:54.954Z,57.08
2018-01-12T18:39:21.280Z,57.16
2018-01-12T18:41:47.836Z,57.00
2018-01-12T18:44:14.179Z,56.42
2018-01-12T18:46:40.508Z,56.19
2018-01-12T18:49:06.827Z,56.09
2018-01-12T18:51:33.157Z,56.03
2018-01-12T18:53:59.560Z,56.13
2018-01-12T18:56:25.952Z,56.00
2018-01-12T18:58:52.385Z,56.13
2018-01-12T19:01:18.786Z,56.06
2018-01-12T19:03:45.878Z,55.58
2018-01-12T19:06:13.048Z,54.66
2018-01-12T19:08:39.467Z,54.14
2018-01-12T19:11:05.832Z,54.04
2018-01-12T19:13:32.204Z,54.03
2018-01-12T19:15:59.339Z,53.84
2018-01-12T19:18:25.911Z,53.63
2018-01-12T19:20:52.968Z,53.42
2018-01-12T19:23:19.354Z,53.51
2018-01-12T19:25:45.693Z,53.45
2018-01-12T19:28:12.072Z,53.54
2018-01-12T19:30:38.483Z,53.43
2018-01-12T19:33:04.876Z,53.56
2018-01-12T19:35:31.325Z,53.59
2018-01-12T19:37:57.668Z,53.85
2018-01-12T19:40:24.052Z,53.77
2018-01-12T19:42:50.454Z,53.80
2018-01-12T19:45:16.862Z,53.69
2018-01-12T19:47:43.240Z,53.69
2018-01-12T19:50:09.606Z,53.72
2018-01-12T19:52:36.710Z,53.73
2018-01-12T19:55:03.147Z,54.03
2018-01-12T19:57:29.528Z,53.71
2018-01-12T19:59:56.615Z,53.89
2018-01-12T20:02:22.976Z,54.04
2018-01-12T20:04:49.374Z,53.78
2018-01-12T20:07:15.750Z,53.69
2018-01-12T20:09:42.277Z,53.65
2018-01-12T20:12:08.871Z,53.81
2018-01-12T20:14:35.503Z,53.81
2018-01-12T20:17:02.211Z,53.75
2018-01-12T20:19:28.915Z,54.00
2018-01-12T20:21:55.302Z,54.06
2018-01-12T20:24:21.947Z,54.06
2018-01-12T20:26:49.089Z,54.14
2018-01-12T20:29:15.477Z,54.41
2018-01-12T20:31:41.856Z,54.40
2018-01-12T20:34:08.468Z,54.34
2018-01-12T20:36:34.948Z,54.40
2018-01-12T20:39:01.302Z,54.51
2018-01-12T20:41:27.678Z,54.56
2018-01-12T20:43:54.486Z,54.50
2018-01-12T20:46:20.871Z,54.47
2018-01-12T20:48:47.203Z,54.49
2018-01-12T20:51:13.544Z,54.65
2018-01-12T20:53:40.648Z,54.64
2018-01-12T20:56:07.021Z,54.47
2018-01-12T20:58:33.372Z,54.52
2018-01-12T21:01:00.466Z,53.19
2018-01-12T21:03:26.814Z,53.28
2018-01-12T21:05:53.145Z,53.64
2018-01-12T21:08:19.519Z,54.24
2018-01-12T21:10:45.914Z,54.36
2018-01-12T21:13:12.311Z,54.38
2018-01-12T21:15:38.687Z,54.17
2018-01-12T21:18:04.997Z,54.01
2018-01-12T21:20:31.415Z,54.17
2018-01-12T21:22:57.767Z,54.20
2018-01-12T21:25:24.872Z,54.23
2018-01-12T21:27:51.196Z,53.92
2018-01-12T21:30:17.563Z,53.81
2018-01-12T21:32:43.981Z,54.16
2018-01-12T21:35:10.338Z,53.69
2018-01-12T21:37:36.662Z,53.58
2018-01-12T21:40:03.020Z,53.68
2018-01-12T21:42:29.387Z,53.80
2018-01-12T21:44:55.746Z,53.99
2018-01-12T21:47:22.118Z,54.27
2018-01-12T21:49:48.507Z,54.42
2018-01-12T21:52:14.895Z,54.40
2018-01-12T21:54:41.266Z,54.67
2018-01-12T21:57:07.646Z,54.74
2018-01-12T21:59:33.983Z,54.81
2018-01-12T22:02:00.317Z,55.00
2018-01-12T22:04:26.642Z,55.13
2018-01-12T22:06:52.985Z,55.23
2018-01-12T22:09:19.511Z,55.25
2018-01-12T22:11:45.878Z,55.35
2018-01-12T22:14:12.267Z,55.58
2018-01-12T22:16:38.623Z,55.65
2018-01-12T22:19:04.989Z,55.78
2018-01-12T22:21:31.852Z,55.85
2018-01-12T22:23:58.190Z,55.92
2018-01-12T22:26:24.551Z,55.83
2018-01-12T22:28:50.876Z,55.82
2018-01-12T22:31:17.210Z,55.85
2018-01-12T22:33:43.582Z,55.57
2018-01-12T22:36:09.951Z,55.40
2018-01-12T22:38:36.303Z,55.29
2018-01-12T22:41:02.673Z,55.38
2018-01-12T22:43:29.015Z,55.47
2018-01-12T22:45:56.136Z,55.43
2018-01-12T22:48:22.478Z,55.25
2018-01-12T22:50:48.822Z,55.15
2018-01-12T22:53:15.173Z,54.67
2018-01-12T22:55:41.515Z,53.33
2018-01-12T22:58:07.897Z,53.56
2018-01-12T23:51:16.806Z,54.01
2018-01-12T23:53:43.444Z,54.00
2018-01-12T23:56:10.192Z,54.50
2018-01-12T23:58:36.845Z,54.36
